sensor_id;sensor_type;location;lat;lon;timestamp;P1;durP1;ratioP1;P2;durP2;ratioP2
1136;SDS011;557;48.466;7.950;2022-07-30T00:00:53;14.93;;;14.03;;
1136;SDS011;557;48.466;7.950;2022-07-30T00:03:39;14.70;;;13.90;;
1136;SDS011;557;48.466;7.950;2022-07-30T00:06:25;14.60;;;13.50;;
1136;SDS011;557;48.466;7.950;2022-07-30T00:09:11;14.90;;;13.93;;
1136;SDS011;557;48.466;7.950;2022-07-30T00:11:57;15.00;;;14.07;;
1136;SDS011;557;48.466;7.950;2022-07-30T00:14:42;14.37;;;13.40;;
1136;SDS011;557;48.466;7.950;2022-07-30T00:17:29;13.80;;;13.00;;
1136;SDS011;557;48.466;7.950;2022-07-30T00:20:15;14.70;;;13.67;;
1136;SDS011;557;48.466;7.950;2022-07-30T00:23:02;14.60;;;13.50;;
1136;SDS011;557;48.466;7.950;2022-07-30T00:25:48;14.83;;;13.93;;
1136;SDS011;557;48.466;7.950;2022-07-30T00:28:34;14.60;;;13.70;;
1136;SDS011;557;48.466;7.950;2022-07-30T00:31:19;14.30;;;13.07;;
1136;SDS011;557;48.466;7.950;2022-07-30T00:34:07;14.23;;;13.40;;
1136;SDS011;557;48.466;7.950;2022-07-30T00:36:52;13.80;;;13.00;;
1136;SDS011;557;48.466;7.950;2022-07-30T00:39:38;15.10;;;14.30;;
1136;SDS011;557;48.466;7.950;2022-07-30T00:42:25;13.90;;;13.20;;
1136;SDS011;557;48.466;7.950;2022-07-30T00:45:21;14.43;;;13.20;;
1136;SDS011;557;48.466;7.950;2022-07-30T00:48:07;13.67;;;12.90;;
1136;SDS011;557;48.466;7.950;2022-07-30T00:50:55;13.67;;;12.70;;
1136;SDS011;557;48.466;7.950;2022-07-30T00:53:41;13.70;;;12.90;;
1136;SDS011;557;48.466;7.950;2022-07-30T00:56:26;13.40;;;12.70;;
1136;SDS011;557;48.466;7.950;2022-07-30T00:59:12;13.50;;;12.63;;
1136;SDS011;557;48.466;7.950;2022-07-30T01:01:58;13.53;;;12.73;;
1136;SDS011;557;48.466;7.950;2022-07-30T01:04:44;13.07;;;12.27;;
1136;SDS011;557;48.466;7.950;2022-07-30T01:07:31;13.23;;;12.53;;
1136;SDS011;557;48.466;7.950;2022-07-30T01:10:17;14.23;;;12.97;;
1136;SDS011;557;48.466;7.950;2022-07-30T01:13:03;12.80;;;12.00;;
1136;SDS011;557;48.466;7.950;2022-07-30T01:15:49;13.83;;;12.70;;
1136;SDS011;557;48.466;7.950;2022-07-30T01:18:35;13.03;;;12.23;;
1136;SDS011;557;48.466;7.950;2022-07-30T01:21:37;13.30;;;12.50;;
1136;SDS011;557;48.466;7.950;2022-07-30T01:24:27;13.37;;;12.33;;
1136;SDS011;557;48.466;7.950;2022-07-30T01:27:23;12.63;;;11.63;;
1136;SDS011;557;48.466;7.950;2022-07-30T01:30:13;13.20;;;12.30;;
1136;SDS011;557;48.466;7.950;2022-07-30T01:33:02;13.63;;;12.73;;
1136;SDS011;557;48.466;7.950;2022-07-30T01:35:50;13.63;;;12.67;;
1136;SDS011;557;48.466;7.950;2022-07-30T01:38:36;13.80;;;13.00;;
1136;SDS011;557;48.466;7.950;2022-07-30T01:41:24;12.43;;;11.60;;
1136;SDS011;557;48.466;7.950;2022-07-30T01:44:12;12.93;;;12.03;;
1136;SDS011;557;48.466;7.950;2022-07-30T01:46:59;13.20;;;12.30;;
1136;SDS011;557;48.466;7.950;2022-07-30T01:49:47;12.43;;;11.73;;
1136;SDS011;557;48.466;7.950;2022-07-30T01:52:34;12.40;;;11.70;;
1136;SDS011;557;48.466;7.950;2022-07-30T01:55:23;12.70;;;11.90;;
1136;SDS011;557;48.466;7.950;2022-07-30T01:58:11;14.23;;;13.10;;
1136;SDS011;557;48.466;7.950;2022-07-30T02:00:59;13.17;;;12.17;;
1136;SDS011;557;48.466;7.950;2022-07-30T02:03:45;13.40;;;12.37;;
1136;SDS011;557;48.466;7.950;2022-07-30T02:06:31;13.47;;;12.57;;
1136;SDS011;557;48.466;7.950;2022-07-30T02:09:22;12.97;;;12.00;;
1136;SDS011;557;48.466;7.950;2022-07-30T02:12:13;14.13;;;13.03;;
1136;SDS011;557;48.466;7.950;2022-07-30T02:15:13;13.97;;;12.97;;
1136;SDS011;557;48.466;7.950;2022-07-30T02:18:11;12.80;;;11.90;;
1136;SDS011;557;48.466;7.950;2022-07-30T02:21:03;13.60;;;12.60;;
1136;SDS011;557;48.466;7.950;2022-07-30T02:23:51;11.90;;;11.10;;
1136;SDS011;557;48.466;7.950;2022-07-30T02:26:40;12.07;;;11.27;;
1136;SDS011;557;48.466;7.950;2022-07-30T02:29:27;11.37;;;10.50;;
1136;SDS011;557;48.466;7.950;2022-07-30T02:32:16;11.80;;;11.00;;
1136;SDS011;557;48.466;7.950;2022-07-30T02:35:08;11.40;;;10.60;;
1136;SDS011;557;48.466;7.950;2022-07-30T02:37:58;11.73;;;10.93;;
1136;SDS011;557;48.466;7.950;2022-07-30T02:40:46;11.00;;;10.27;;
1136;SDS011;557;48.466;7.950;2022-07-30T02:43:33;11.20;;;10.50;;
1136;SDS011;557;48.466;7.950;2022-07-30T02:46:20;11.50;;;10.50;;
1136;SDS011;557;48.466;7.950;2022-07-30T02:49:07;10.80;;;9.90;;
1136;SDS011;557;48.466;7.950;2022-07-30T02:51:58;10.27;;;9.30;;
1136;SDS011;557;48.466;7.950;2022-07-30T02:54:45;10.70;;;9.80;;
1136;SDS011;557;48.466;7.950;2022-07-30T02:57:34;10.90;;;10.00;;
1136;SDS011;557;48.466;7.950;2022-07-30T03:00:21;10.90;;;10.10;;
1136;SDS011;557;48.466;7.950;2022-07-30T03:03:09;11.00;;;10.00;;
1136;SDS011;557;48.466;7.950;2022-07-30T03:05:57;10.17;;;9.47;;
1136;SDS011;557;48.466;7.950;2022-07-30T03:08:46;10.43;;;9.63;;
1136;SDS011;557;48.466;7.950;2022-07-30T03:11:32;10.00;;;9.40;;
1136;SDS011;557;48.466;7.950;2022-07-30T03:14:19;10.10;;;9.40;;
1136;SDS011;557;48.466;7.950;2022-07-30T03:17:05;11.23;;;10.27;;
1136;SDS011;557;48.466;7.950;2022-07-30T03:19:52;9.73;;;8.83;;
1136;SDS011;557;48.466;7.950;2022-07-30T03:22:41;9.53;;;8.83;;
1136;SDS011;557;48.466;7.950;2022-07-30T03:25:29;10.00;;;9.30;;
1136;SDS011;557;48.466;7.950;2022-07-30T03:28:16;10.70;;;9.90;;
1136;SDS011;557;48.466;7.950;2022-07-30T03:31:04;10.07;;;9.20;;
1136;SDS011;557;48.466;7.950;2022-07-30T03:33:50;9.70;;;9.00;;
1136;SDS011;557;48.466;7.950;2022-07-30T03:36:37;9.40;;;8.60;;
1136;SDS011;557;48.466;7.950;2022-07-30T03:39:24;9.73;;;8.90;;
1136;SDS011;557;48.466;7.950;2022-07-30T03:42:12;10.27;;;9.27;;
1136;SDS011;557;48.466;7.950;2022-07-30T03:44:59;10.20;;;9.40;;
1136;SDS011;557;48.466;7.950;2022-07-30T03:47:47;9.37;;;8.67;;
1136;SDS011;557;48.466;7.950;2022-07-30T03:50:33;9.10;;;8.43;;
1136;SDS011;557;48.466;7.950;2022-07-30T03:53:20;8.70;;;8.00;;
1136;SDS011;557;48.466;7.950;2022-07-30T03:56:07;9.20;;;8.50;;
1136;SDS011;557;48.466;7.950;2022-07-30T03:58:55;11.10;;;8.80;;
1136;SDS011;557;48.466;7.950;2022-07-30T04:01:40;11.43;;;8.60;;
1136;SDS011;557;48.466;7.950;2022-07-30T04:04:26;9.40;;;8.60;;
1136;SDS011;557;48.466;7.950;2022-07-30T04:07:13;10.13;;;9.33;;
1136;SDS011;557;48.466;7.950;2022-07-30T04:09:58;9.13;;;8.33;;
1136;SDS011;557;48.466;7.950;2022-07-30T04:12:44;9.73;;;8.93;;
1136;SDS011;557;48.466;7.950;2022-07-30T04:15:32;8.97;;;8.13;;
1136;SDS011;557;48.466;7.950;2022-07-30T04:18:25;9.07;;;8.37;;
1136;SDS011;557;48.466;7.950;2022-07-30T04:21:12;9.03;;;8.23;;
1136;SDS011;557;48.466;7.950;2022-07-30T04:24:02;9.77;;;8.87;;
1136;SDS011;557;48.466;7.950;2022-07-30T04:26:49;10.13;;;9.13;;
1136;SDS011;557;48.466;7.950;2022-07-30T04:29:36;9.60;;;8.70;;
1136;SDS011;557;48.466;7.950;2022-07-30T04:32:25;8.83;;;7.93;;
1136;SDS011;557;48.466;7.950;2022-07-30T04:35:11;9.13;;;8.33;;
1136;SDS011;557;48.466;7.950;2022-07-30T04:37:57;19.50;;;9.33;;
1136;SDS011;557;48.466;7.950;2022-07-30T04:40:43;9.60;;;8.70;;
1136;SDS011;557;48.466;7.950;2022-07-30T04:43:28;10.17;;;8.67;;
1136;SDS011;557;48.466;7.950;2022-07-30T04:46:14;9.20;;;8.40;;
1136;SDS011;557;48.466;7.950;2022-07-30T04:49:01;9.30;;;8.50;;
1136;SDS011;557;48.466;7.950;2022-07-30T04:51:47;9.57;;;8.87;;
1136;SDS011;557;48.466;7.950;2022-07-30T04:54:36;9.13;;;8.33;;
1136;SDS011;557;48.466;7.950;2022-07-30T04:57:25;10.00;;;9.10;;
1136;SDS011;557;48.466;7.950;2022-07-30T05:00:12;9.23;;;8.53;;
1136;SDS011;557;48.466;7.950;2022-07-30T05:02:59;9.63;;;8.70;;
1136;SDS011;557;48.466;7.950;2022-07-30T05:05:48;8.80;;;8.10;;
1136;SDS011;557;48.466;7.950;2022-07-30T05:08:35;8.67;;;8.00;;
1136;SDS011;557;48.466;7.950;2022-07-30T05:11:22;8.87;;;8.27;;
1136;SDS011;557;48.466;7.950;2022-07-30T05:14:07;9.00;;;8.33;;
1136;SDS011;557;48.466;7.950;2022-07-30T05:16:53;9.03;;;8.33;;
1136;SDS011;557;48.466;7.950;2022-07-30T05:19:38;9.43;;;8.43;;
1136;SDS011;557;48.466;7.950;2022-07-30T05:22:26;9.53;;;8.73;;
1136;SDS011;557;48.466;7.950;2022-07-30T05:25:13;8.80;;;8.10;;
1136;SDS011;557;48.466;7.950;2022-07-30T05:27:59;9.30;;;8.50;;
1136;SDS011;557;48.466;7.950;2022-07-30T05:30:45;9.20;;;8.50;;
1136;SDS011;557;48.466;7.950;2022-07-30T05:33:31;10.40;;;9.40;;
1136;SDS011;557;48.466;7.950;2022-07-30T05:36:17;9.23;;;8.53;;
1136;SDS011;557;48.466;7.950;2022-07-30T05:39:05;10.10;;;9.23;;
1136;SDS011;557;48.466;7.950;2022-07-30T05:41:50;8.80;;;8.20;;
1136;SDS011;557;48.466;7.950;2022-07-30T05:44:36;10.37;;;9.67;;
1136;SDS011;557;48.466;7.950;2022-07-30T05:47:22;10.50;;;9.60;;
1136;SDS011;557;48.466;7.950;2022-07-30T05:50:07;10.33;;;9.43;;
1136;SDS011;557;48.466;7.950;2022-07-30T05:52:53;10.60;;;9.80;;
1136;SDS011;557;48.466;7.950;2022-07-30T05:55:42;10.47;;;9.60;;
1136;SDS011;557;48.466;7.950;2022-07-30T05:58:28;10.47;;;9.77;;
1136;SDS011;557;48.466;7.950;2022-07-30T06:01:14;10.73;;;10.00;;
1136;SDS011;557;48.466;7.950;2022-07-30T06:03:59;10.40;;;9.70;;
1136;SDS011;557;48.466;7.950;2022-07-30T06:06:45;11.73;;;10.73;;
1136;SDS011;557;48.466;7.950;2022-07-30T06:09:31;10.40;;;9.80;;
1136;SDS011;557;48.466;7.950;2022-07-30T06:12:18;11.43;;;10.53;;
1136;SDS011;557;48.466;7.950;2022-07-30T06:15:04;11.03;;;10.33;;
1136;SDS011;557;48.466;7.950;2022-07-30T06:17:51;11.93;;;11.17;;
1136;SDS011;557;48.466;7.950;2022-07-30T06:20:37;12.07;;;11.17;;
1136;SDS011;557;48.466;7.950;2022-07-30T06:23:23;10.67;;;10.07;;
1136;SDS011;557;48.466;7.950;2022-07-30T06:26:09;12.23;;;11.23;;
1136;SDS011;557;48.466;7.950;2022-07-30T06:28:56;13.17;;;12.37;;
1136;SDS011;557;48.466;7.950;2022-07-30T06:31:42;12.70;;;11.87;;
1136;SDS011;557;48.466;7.950;2022-07-30T06:34:28;13.33;;;12.40;;
1136;SDS011;557;48.466;7.950;2022-07-30T06:37:14;12.47;;;11.67;;
1136;SDS011;557;48.466;7.950;2022-07-30T06:39:59;12.87;;;12.03;;
1136;SDS011;557;48.466;7.950;2022-07-30T06:42:45;12.80;;;12.00;;
1136;SDS011;557;48.466;7.950;2022-07-30T06:45:32;12.77;;;12.07;;
1136;SDS011;557;48.466;7.950;2022-07-30T06:48:18;14.07;;;12.87;;
1136;SDS011;557;48.466;7.950;2022-07-30T06:51:04;14.77;;;13.60;;
1136;SDS011;557;48.466;7.950;2022-07-30T06:53:50;15.30;;;14.27;;
1136;SDS011;557;48.466;7.950;2022-07-30T06:56:36;15.43;;;14.43;;
1136;SDS011;557;48.466;7.950;2022-07-30T06:59:22;14.23;;;13.40;;
1136;SDS011;557;48.466;7.950;2022-07-30T07:02:11;15.50;;;14.03;;
1136;SDS011;557;48.466;7.950;2022-07-30T07:04:57;15.20;;;14.20;;
1136;SDS011;557;48.466;7.950;2022-07-30T07:07:42;15.00;;;13.90;;
1136;SDS011;557;48.466;7.950;2022-07-30T07:10:28;14.97;;;14.07;;
1136;SDS011;557;48.466;7.950;2022-07-30T07:13:13;15.23;;;13.70;;
1136;SDS011;557;48.466;7.950;2022-07-30T07:15:59;14.57;;;13.77;;
1136;SDS011;557;48.466;7.950;2022-07-30T07:18:46;15.30;;;14.20;;
1136;SDS011;557;48.466;7.950;2022-07-30T07:21:32;15.63;;;14.70;;
1136;SDS011;557;48.466;7.950;2022-07-30T07:24:18;15.70;;;14.80;;
1136;SDS011;557;48.466;7.950;2022-07-30T07:27:03;16.03;;;15.03;;
1136;SDS011;557;48.466;7.950;2022-07-30T07:29:50;15.60;;;14.53;;
1136;SDS011;557;48.466;7.950;2022-07-30T07:32:36;15.50;;;14.50;;
1136;SDS011;557;48.466;7.950;2022-07-30T07:35:23;15.80;;;14.70;;
1136;SDS011;557;48.466;7.950;2022-07-30T07:38:09;15.87;;;14.90;;
1136;SDS011;557;48.466;7.950;2022-07-30T07:40:55;17.30;;;16.23;;
1136;SDS011;557;48.466;7.950;2022-07-30T07:43:41;16.60;;;15.70;;
1136;SDS011;557;48.466;7.950;2022-07-30T07:46:27;16.80;;;15.80;;
1136;SDS011;557;48.466;7.950;2022-07-30T07:49:13;16.30;;;15.40;;
1136;SDS011;557;48.466;7.950;2022-07-30T07:52:00;16.90;;;15.80;;
1136;SDS011;557;48.466;7.950;2022-07-30T07:54:45;16.50;;;15.40;;
1136;SDS011;557;48.466;7.950;2022-07-30T07:57:31;16.90;;;15.50;;
1136;SDS011;557;48.466;7.950;2022-07-30T08:00:23;16.47;;;15.57;;
1136;SDS011;557;48.466;7.950;2022-07-30T08:03:08;15.60;;;14.80;;
1136;SDS011;557;48.466;7.950;2022-07-30T08:05:54;16.47;;;15.37;;
1136;SDS011;557;48.466;7.950;2022-07-30T08:08:41;16.50;;;15.60;;
1136;SDS011;557;48.466;7.950;2022-07-30T08:11:27;17.20;;;15.63;;
1136;SDS011;557;48.466;7.950;2022-07-30T08:14:13;16.63;;;15.73;;
1136;SDS011;557;48.466;7.950;2022-07-30T08:16:58;15.87;;;14.90;;
1136;SDS011;557;48.466;7.950;2022-07-30T08:19:44;14.87;;;13.97;;
1136;SDS011;557;48.466;7.950;2022-07-30T08:22:30;15.63;;;14.73;;
1136;SDS011;557;48.466;7.950;2022-07-30T08:25:17;16.20;;;15.25;;
1136;SDS011;557;48.466;7.950;2022-07-30T08:28:03;15.50;;;14.70;;
1136;SDS011;557;48.466;7.950;2022-07-30T08:30:49;16.67;;;15.60;;
1136;SDS011;557;48.466;7.950;2022-07-30T08:33:34;16.43;;;15.53;;
1136;SDS011;557;48.466;7.950;2022-07-30T08:36:20;15.90;;;15.10;;
1136;SDS011;557;48.466;7.950;2022-07-30T08:39:06;16.42;;;15.43;;
1136;SDS011;557;48.466;7.950;2022-07-30T08:41:53;16.90;;;15.85;;
1136;SDS011;557;48.466;7.950;2022-07-30T08:44:39;16.48;;;15.57;;
1136;SDS011;557;48.466;7.950;2022-07-30T08:47:27;18.15;;;16.75;;
1136;SDS011;557;48.466;7.950;2022-07-30T08:50:16;17.42;;;16.50;;
1136;SDS011;557;48.466;7.950;2022-07-30T08:53:03;17.35;;;16.30;;
1136;SDS011;557;48.466;7.950;2022-07-30T08:55:49;17.33;;;16.42;;
1136;SDS011;557;48.466;7.950;2022-07-30T08:58:36;16.85;;;15.88;;
1136;SDS011;557;48.466;7.950;2022-07-30T09:01:22;17.02;;;15.93;;
1136;SDS011;557;48.466;7.950;2022-07-30T09:04:09;16.95;;;15.88;;
1136;SDS011;557;48.466;7.950;2022-07-30T09:06:54;16.55;;;15.55;;
1136;SDS011;557;48.466;7.950;2022-07-30T09:09:40;17.17;;;16.08;;
1136;SDS011;557;48.466;7.950;2022-07-30T09:12:33;17.58;;;16.48;;
1136;SDS011;557;48.466;7.950;2022-07-30T09:15:21;18.02;;;16.95;;
1136;SDS011;557;48.466;7.950;2022-07-30T09:18:08;17.10;;;15.90;;
1136;SDS011;557;48.466;7.950;2022-07-30T09:20:54;16.65;;;15.60;;
1136;SDS011;557;48.466;7.950;2022-07-30T09:23:41;17.25;;;16.35;;
1136;SDS011;557;48.466;7.950;2022-07-30T09:26:53;18.05;;;16.95;;
1136;SDS011;557;48.466;7.950;2022-07-30T09:29:40;16.75;;;15.85;;
1136;SDS011;557;48.466;7.950;2022-07-30T09:32:29;16.88;;;15.88;;
1136;SDS011;557;48.466;7.950;2022-07-30T09:35:32;16.15;;;15.35;;
1136;SDS011;557;48.466;7.950;2022-07-30T09:38:17;16.60;;;15.52;;
1136;SDS011;557;48.466;7.950;2022-07-30T09:41:04;15.98;;;15.07;;
1136;SDS011;557;48.466;7.950;2022-07-30T09:43:50;17.63;;;16.42;;
1136;SDS011;557;48.466;7.950;2022-07-30T09:46:39;16.80;;;15.70;;
1136;SDS011;557;48.466;7.950;2022-07-30T09:49:27;18.30;;;17.05;;
1136;SDS011;557;48.466;7.950;2022-07-30T09:52:17;17.88;;;16.67;;
1136;SDS011;557;48.466;7.950;2022-07-30T09:55:12;17.23;;;16.23;;
1136;SDS011;557;48.466;7.950;2022-07-30T09:57:59;17.98;;;16.98;;
1136;SDS011;557;48.466;7.950;2022-07-30T10:00:46;17.98;;;16.98;;
1136;SDS011;557;48.466;7.950;2022-07-30T10:03:32;18.20;;;17.20;;
1136;SDS011;557;48.466;7.950;2022-07-30T10:06:18;17.88;;;16.40;;
1136;SDS011;557;48.466;7.950;2022-07-30T10:09:23;17.90;;;16.67;;
1136;SDS011;557;48.466;7.950;2022-07-30T10:12:09;17.48;;;16.58;;
1136;SDS011;557;48.466;7.950;2022-07-30T10:14:57;17.58;;;16.67;;
1136;SDS011;557;48.466;7.950;2022-07-30T10:17:46;17.20;;;16.35;;
1136;SDS011;557;48.466;7.950;2022-07-30T10:20:33;17.58;;;16.67;;
1136;SDS011;557;48.466;7.950;2022-07-30T10:23:20;17.25;;;16.10;;
1136;SDS011;557;48.466;7.950;2022-07-30T10:26:07;16.85;;;15.93;;
1136;SDS011;557;48.466;7.950;2022-07-30T10:28:54;17.70;;;16.50;;
1136;SDS011;557;48.466;7.950;2022-07-30T10:31:40;17.30;;;16.38;;
1136;SDS011;557;48.466;7.950;2022-07-30T10:34:26;17.38;;;16.17;;
1136;SDS011;557;48.466;7.950;2022-07-30T10:37:12;17.50;;;16.58;;
1136;SDS011;557;48.466;7.950;2022-07-30T10:40:02;17.23;;;16.13;;
1136;SDS011;557;48.466;7.950;2022-07-30T10:46:17;18.10;;;17.00;;
1136;SDS011;557;48.466;7.950;2022-07-30T10:49:12;17.83;;;16.92;;
1136;SDS011;557;48.466;7.950;2022-07-30T10:51:58;17.25;;;16.40;;
1136;SDS011;557;48.466;7.950;2022-07-30T10:54:43;17.83;;;16.70;;
1136;SDS011;557;48.466;7.950;2022-07-30T10:57:31;17.20;;;16.30;;
1136;SDS011;557;48.466;7.950;2022-07-30T11:00:17;17.58;;;16.58;;
1136;SDS011;557;48.466;7.950;2022-07-30T11:06:24;17.73;;;16.83;;
1136;SDS011;557;48.466;7.950;2022-07-30T11:15:50;18.33;;;17.33;;
1136;SDS011;557;48.466;7.950;2022-07-30T11:19:00;17.77;;;16.67;;
1136;SDS011;557;48.466;7.950;2022-07-30T11:21:47;17.15;;;16.25;;
1136;SDS011;557;48.466;7.950;2022-07-30T11:25:08;17.30;;;16.30;;
1136;SDS011;557;48.466;7.950;2022-07-30T11:28:34;17.95;;;16.95;;
1136;SDS011;557;48.466;7.950;2022-07-30T11:31:28;17.33;;;16.33;;
1136;SDS011;557;48.466;7.950;2022-07-30T11:34:26;18.08;;;17.00;;
1136;SDS011;557;48.466;7.950;2022-07-30T11:37:13;17.27;;;16.38;;
1136;SDS011;557;48.466;7.950;2022-07-30T11:40:09;18.48;;;17.33;;
1136;SDS011;557;48.466;7.950;2022-07-30T11:46:07;17.63;;;16.73;;
1136;SDS011;557;48.466;7.950;2022-07-30T11:48:54;18.00;;;17.00;;
1136;SDS011;557;48.466;7.950;2022-07-30T11:51:41;16.92;;;16.10;;
1136;SDS011;557;48.466;7.950;2022-07-30T11:54:28;17.80;;;16.80;;
1136;SDS011;557;48.466;7.950;2022-07-30T11:57:14;17.90;;;16.83;;
1136;SDS011;557;48.466;7.950;2022-07-30T12:00:00;17.67;;;16.77;;
1136;SDS011;557;48.466;7.950;2022-07-30T12:02:48;17.23;;;16.30;;
1136;SDS011;557;48.466;7.950;2022-07-30T12:05:34;16.90;;;16.00;;
1136;SDS011;557;48.466;7.950;2022-07-30T12:08:20;17.38;;;16.42;;
1136;SDS011;557;48.466;7.950;2022-07-30T12:11:06;18.17;;;16.63;;
1136;SDS011;557;48.466;7.950;2022-07-30T12:13:54;17.30;;;16.30;;
1136;SDS011;557;48.466;7.950;2022-07-30T12:16:47;17.67;;;16.50;;
1136;SDS011;557;48.466;7.950;2022-07-30T12:19:43;17.15;;;16.30;;
1136;SDS011;557;48.466;7.950;2022-07-30T12:22:30;17.02;;;16.13;;
1136;SDS011;557;48.466;7.950;2022-07-30T12:25:16;17.00;;;16.00;;
1136;SDS011;557;48.466;7.950;2022-07-30T12:28:03;17.05;;;16.13;;
1136;SDS011;557;48.466;7.950;2022-07-30T12:30:49;16.95;;;15.95;;
1136;SDS011;557;48.466;7.950;2022-07-30T12:33:35;17.70;;;16.70;;
1136;SDS011;557;48.466;7.950;2022-07-30T12:36:24;17.70;;;16.70;;
1136;SDS011;557;48.466;7.950;2022-07-30T12:39:16;17.73;;;16.73;;
1136;SDS011;557;48.466;7.950;2022-07-30T12:42:03;17.02;;;16.13;;
1136;SDS011;557;48.466;7.950;2022-07-30T12:44:49;16.85;;;15.90;;
1136;SDS011;557;48.466;7.950;2022-07-30T12:47:34;17.17;;;16.23;;
1136;SDS011;557;48.466;7.950;2022-07-30T12:50:21;16.25;;;15.35;;
1136;SDS011;557;48.466;7.950;2022-07-30T12:53:08;17.23;;;16.25;;
1136;SDS011;557;48.466;7.950;2022-07-30T12:55:55;17.30;;;16.35;;
1136;SDS011;557;48.466;7.950;2022-07-30T12:58:56;16.90;;;16.10;;
1136;SDS011;557;48.466;7.950;2022-07-30T13:01:44;17.65;;;16.73;;
1136;SDS011;557;48.466;7.950;2022-07-30T13:04:32;16.92;;;16.10;;
1136;SDS011;557;48.466;7.950;2022-07-30T13:07:18;17.05;;;16.15;;
1136;SDS011;557;48.466;7.950;2022-07-30T13:10:06;17.75;;;16.85;;
1136;SDS011;557;48.466;7.950;2022-07-30T13:12:53;17.55;;;16.55;;
1136;SDS011;557;48.466;7.950;2022-07-30T13:15:39;17.20;;;16.30;;
1136;SDS011;557;48.466;7.950;2022-07-30T13:18:25;18.42;;;17.05;;
1136;SDS011;557;48.466;7.950;2022-07-30T13:21:12;17.05;;;16.02;;
1136;SDS011;557;48.466;7.950;2022-07-30T13:23:58;17.38;;;16.48;;
1136;SDS011;557;48.466;7.950;2022-07-30T13:26:46;17.13;;;16.33;;
1136;SDS011;557;48.466;7.950;2022-07-30T13:29:32;16.90;;;16.00;;
1136;SDS011;557;48.466;7.950;2022-07-30T13:32:18;17.27;;;16.33;;
1136;SDS011;557;48.466;7.950;2022-07-30T13:35:04;17.30;;;16.30;;
1136;SDS011;557;48.466;7.950;2022-07-30T13:37:50;17.38;;;16.48;;
1136;SDS011;557;48.466;7.950;2022-07-30T13:40:36;16.88;;;15.88;;
1136;SDS011;557;48.466;7.950;2022-07-30T13:43:23;18.02;;;16.25;;
1136;SDS011;557;48.466;7.950;2022-07-30T13:46:09;17.33;;;16.33;;
1136;SDS011;557;48.466;7.950;2022-07-30T13:48:55;17.40;;;16.40;;
1136;SDS011;557;48.466;7.950;2022-07-30T13:51:40;17.23;;;16.15;;
1136;SDS011;557;48.466;7.950;2022-07-30T13:54:26;16.27;;;15.48;;
1136;SDS011;557;48.466;7.950;2022-07-30T13:57:13;17.42;;;16.42;;
1136;SDS011;557;48.466;7.950;2022-07-30T14:00:00;17.35;;;16.27;;
1136;SDS011;557;48.466;7.950;2022-07-30T14:02:45;16.20;;;15.40;;
1136;SDS011;557;48.466;7.950;2022-07-30T14:05:31;16.25;;;15.35;;
1136;SDS011;557;48.466;7.950;2022-07-30T14:08:18;16.25;;;15.40;;
1136;SDS011;557;48.466;7.950;2022-07-30T14:11:04;16.80;;;15.90;;
1136;SDS011;557;48.466;7.950;2022-07-30T14:13:50;16.40;;;15.50;;
1136;SDS011;557;48.466;7.950;2022-07-30T14:16:37;17.50;;;16.40;;
1136;SDS011;557;48.466;7.950;2022-07-30T14:19:23;16.45;;;15.63;;
1136;SDS011;557;48.466;7.950;2022-07-30T14:22:08;16.20;;;15.30;;
1136;SDS011;557;48.466;7.950;2022-07-30T14:24:54;17.15;;;16.20;;
1136;SDS011;557;48.466;7.950;2022-07-30T14:27:40;16.65;;;15.75;;
1136;SDS011;557;48.466;7.950;2022-07-30T14:30:25;17.10;;;15.95;;
1136;SDS011;557;48.466;7.950;2022-07-30T14:33:14;20.88;;;19.58;;
1136;SDS011;557;48.466;7.950;2022-07-30T14:36:00;17.08;;;16.17;;
1136;SDS011;557;48.466;7.950;2022-07-30T14:38:45;16.70;;;15.60;;
1136;SDS011;557;48.466;7.950;2022-07-30T14:41:31;16.52;;;15.48;;
1136;SDS011;557;48.466;7.950;2022-07-30T14:44:17;16.45;;;15.45;;
1136;SDS011;557;48.466;7.950;2022-07-30T14:47:03;17.13;;;16.15;;
1136;SDS011;557;48.466;7.950;2022-07-30T14:49:50;16.20;;;15.30;;
1136;SDS011;557;48.466;7.950;2022-07-30T14:52:36;17.35;;;16.25;;
1136;SDS011;557;48.466;7.950;2022-07-30T14:55:23;16.63;;;15.63;;
1136;SDS011;557;48.466;7.950;2022-07-30T14:58:09;16.13;;;15.32;;
1136;SDS011;557;48.466;7.950;2022-07-30T15:00:54;16.58;;;15.30;;
1136;SDS011;557;48.466;7.950;2022-07-30T15:03:40;15.98;;;15.00;;
1136;SDS011;557;48.466;7.950;2022-07-30T15:06:27;16.08;;;15.20;;
1136;SDS011;557;48.466;7.950;2022-07-30T15:09:13;16.40;;;15.40;;
1136;SDS011;557;48.466;7.950;2022-07-30T15:11:59;15.82;;;15.02;;
1136;SDS011;557;48.466;7.950;2022-07-30T15:14:45;16.35;;;15.40;;
1136;SDS011;557;48.466;7.950;2022-07-30T15:17:32;15.32;;;14.50;;
1136;SDS011;557;48.466;7.950;2022-07-30T15:20:20;15.32;;;14.52;;
1136;SDS011;557;48.466;7.950;2022-07-30T15:23:07;16.17;;;15.27;;
1136;SDS011;557;48.466;7.950;2022-07-30T15:25:53;16.27;;;15.07;;
1136;SDS011;557;48.466;7.950;2022-07-30T15:28:39;16.00;;;15.20;;
1136;SDS011;557;48.466;7.950;2022-07-30T15:31:24;16.85;;;15.68;;
1136;SDS011;557;48.466;7.950;2022-07-30T15:34:10;16.55;;;15.27;;
1136;SDS011;557;48.466;7.950;2022-07-30T15:36:56;16.42;;;15.52;;
1136;SDS011;557;48.466;7.950;2022-07-30T15:39:43;16.30;;;15.38;;
1136;SDS011;557;48.466;7.950;2022-07-30T15:42:29;16.88;;;15.93;;
1136;SDS011;557;48.466;7.950;2022-07-30T15:45:14;16.15;;;15.15;;
1136;SDS011;557;48.466;7.950;2022-07-30T15:48:00;16.40;;;15.60;;
1136;SDS011;557;48.466;7.950;2022-07-30T15:50:46;16.60;;;15.80;;
1136;SDS011;557;48.466;7.950;2022-07-30T15:53:32;17.27;;;16.38;;
1136;SDS011;557;48.466;7.950;2022-07-30T15:56:19;16.73;;;15.93;;
1136;SDS011;557;48.466;7.950;2022-07-30T15:59:05;16.40;;;15.57;;
1136;SDS011;557;48.466;7.950;2022-07-30T16:01:51;15.82;;;15.02;;
1136;SDS011;557;48.466;7.950;2022-07-30T16:04:37;16.60;;;15.63;;
1136;SDS011;557;48.466;7.950;2022-07-30T16:07:23;17.25;;;16.35;;
1136;SDS011;557;48.466;7.950;2022-07-30T16:10:09;16.50;;;15.70;;
1136;SDS011;557;48.466;7.950;2022-07-30T16:12:56;17.58;;;16.30;;
1136;SDS011;557;48.466;7.950;2022-07-30T16:15:42;16.50;;;15.60;;
1136;SDS011;557;48.466;7.950;2022-07-30T16:18:28;16.90;;;16.00;;
1136;SDS011;557;48.466;7.950;2022-07-30T16:21:14;16.40;;;15.50;;
1136;SDS011;557;48.466;7.950;2022-07-30T16:24:00;16.40;;;15.50;;
1136;SDS011;557;48.466;7.950;2022-07-30T16:26:46;16.77;;;15.88;;
1136;SDS011;557;48.466;7.950;2022-07-30T16:29:34;16.60;;;15.60;;
1136;SDS011;557;48.466;7.950;2022-07-30T16:32:20;16.40;;;15.50;;
1136;SDS011;557;48.466;7.950;2022-07-30T16:35:06;15.75;;;14.95;;
1136;SDS011;557;48.466;7.950;2022-07-30T16:37:52;16.55;;;15.65;;
1136;SDS011;557;48.466;7.950;2022-07-30T16:40:40;16.55;;;15.65;;
1136;SDS011;557;48.466;7.950;2022-07-30T16:43:26;16.55;;;15.52;;
1136;SDS011;557;48.466;7.950;2022-07-30T16:46:16;16.30;;;15.40;;
1136;SDS011;557;48.466;7.950;2022-07-30T16:49:01;16.10;;;15.30;;
1136;SDS011;557;48.466;7.950;2022-07-30T16:51:47;16.55;;;15.75;;
1136;SDS011;557;48.466;7.950;2022-07-30T16:54:33;16.83;;;15.88;;
1136;SDS011;557;48.466;7.950;2022-07-30T16:57:18;16.33;;;15.50;;
1136;SDS011;557;48.466;7.950;2022-07-30T17:00:05;16.70;;;15.90;;
1136;SDS011;557;48.466;7.950;2022-07-30T17:02:54;16.40;;;15.50;;
1136;SDS011;557;48.466;7.950;2022-07-30T17:05:40;16.27;;;15.48;;
1136;SDS011;557;48.466;7.950;2022-07-30T17:08:25;16.40;;;15.52;;
1136;SDS011;557;48.466;7.950;2022-07-30T17:11:11;16.92;;;15.93;;
1136;SDS011;557;48.466;7.950;2022-07-30T17:13:56;16.48;;;15.50;;
1136;SDS011;557;48.466;7.950;2022-07-30T17:16:42;16.90;;;16.10;;
1136;SDS011;557;48.466;7.950;2022-07-30T17:19:29;16.42;;;15.63;;
1136;SDS011;557;48.466;7.950;2022-07-30T17:22:15;16.83;;;15.75;;
1136;SDS011;557;48.466;7.950;2022-07-30T17:25:01;16.35;;;15.45;;